Thursday, August 16, 2018, 1:57 PM GMT
Back to Local

CYZX, Greenwood, N. S.

Location: , , Canada Lat: 44.983
Local Time: 1:57 PM GMT (13:57 GMT) Lon: -64.917
Time Zone: GMT Elev: 91 ft

Show me the last for .
Show Decoded

2018-08-16 13:00 METAR CYZX 161300Z 24004KT 12SM SCT030 BKN100 21/19 A2990 RMK SC3AC2 SLP125 =
2018-08-16 12:00 METAR CYZX 161200Z 21005KT 10SM FEW005 BKN012 BKN100 20/18 A2989 RMK SF1SC5AC2
                 SLP124 =
2018-08-16 11:00 METAR CYZX 161100Z 22003KT 8SM FEW005 BKN012 BKN030 20/18 A2988 RMK SF2SC4SC2
                 SLP119 =
2018-08-16 10:18 METAR CYZX 161018Z 25005KT 8SM FEW005 BKN012 BKN030 19/18 A2987 RMK SF2SC3SC2
                 SLP116 =
2018-08-16 10:00 METAR CYZX 161000Z 25007KT 6SM BR BKN004 BKN012 BKN030 19/19 A2987 RMK SF5SC2SC1
                 SLP114 =
2018-08-16 09:35 METAR CYZX 160935Z 25005KT 4SM BR BKN004 BKN030 19/18 A2986 RMK SF5SC2 SLP112 =
2018-08-16 09:00 METAR CYZX 160900Z CCA 25011KT 8SM BKN005 19/18 A2986 RMK SF6 SLP110 =
2018-08-16 08:00 METAR CYZX 160800Z 25006KT 15SM BKN008 19/18 A2984 RMK SF5 SLP105 =
2018-08-16 07:54 METAR CYZX 160754Z 23006KT 12SM BKN009 20/18 A2984 RMK SF5 SLP105 =
2018-08-16 07:00 METAR CYZX 160700Z 26005KT 15SM SCT011 19/19 A2985 RMK SC4 SLP107 =
2018-08-16 06:31 METAR CYZX 160631Z 28004KT 15SM SCT012 20/19 A2985 RMK SC4 SLP107 =
2018-08-16 06:00 METAR CYZX 160600Z 26005KT 12SM BKN007 OVC011 20/20 A2985 RMK SF5SC3 SLP107 =
2018-08-16 05:16 METAR CYZX 160516Z 25006KT 12SM BKN006 OVC011 20/20 A2985 RMK SF5SC3 SLP108 =
2018-08-16 05:00 METAR CYZX 160500Z 26005KT 15SM OVC011 21/20 A2985 RMK SC8 SLP109 =
2018-08-16 04:00 METAR CYZX 160400Z 26006KT 15SM OVC011 21/20 A2986 RMK SC8 SLP110 =
2018-08-16 03:00 METAR CYZX 160300Z 23005KT 15SM BKN013 BKN030 21/20 A2984 RMK SC5SC2 SLP103 =
2018-08-16 02:51 METAR CYZX 160251Z 22006KT 15SM BKN013 BKN030 21/20 A2984 RMK SC5SC2 SLP103 =
2018-08-16 02:00 METAR CYZX 160200Z 25005KT 15SM BKN026 BKN150 21/20 A2984 RMK SC5AC2 SLP104 =
2018-08-16 01:00 METAR CYZX 160100Z 25006KT 15SM SCT026 BKN150 21/20 A2985 RMK SC3AC3 SLP107 =
2018-08-16 00:00 METAR CYZX 160000Z 27004KT 15SM FEW011 SCT030 BKN150 21/20 A2983 RMK SC2SC2AC2
                 SLP102 =
2018-08-15 23:00 METAR CYZX 152300Z 27002KT 15SM SCT030 BKN150 22/21 A2984 RMK SC3AC4 SLP103 =
2018-08-15 22:00 METAR CYZX 152200Z 23004KT 15SM SCT030 SCT100 BKN250 24/21 A2981 RMK SC3AC1CI2
                 SLP096 =
2018-08-15 21:00 METAR CYZX 152100Z 20004KT 15SM SCT040 BKN100 24/21 A2981 RMK SC4AC2 SLP095 =
2018-08-15 20:48 METAR CYZX 152048Z 18005KT 10SM FEW008 SCT025 BKN100 23/21 A2981 RMK SF1SC3AC2
                 SLP096 =
2018-08-15 20:10 METAR CYZX 152010Z 19006KT 5SM -SHRA BR FEW008 BKN025 BKN100 BKN220 23/22 A2983
                 RMK SF1SC5AC1CI1 TS E QUAD MOVG E VIS VRB 3-8 SLP101 =
2018-08-15 20:00 METAR CYZX 152000Z 23003KT 5SM -TSRA BR BKN030CB BKN100 BKN220 23/22 A2983 RMK
                 CB6AC1CI1 TS E QUAD MOVG E VIS VRB 3-8 PCPN VRY LGT SLP101 =
2018-08-15 19:29 METAR CYZX 151929Z 23004KT 10SM TS BKN030CB BKN100 BKN250 22/21 A2984 RMK
                 CB6AC1CI1 TS OVRHD MOVG E OCNL LTGCC OVRHD TS SE QUAD MOVG NE SLP103 =
2018-08-15 19:00 METAR CYZX 151900Z 27013KT 5SM -TSRA BR BKN030CB BKN250 24/21 A2983 RMK CB6CI1
                 SLP102 =
2018-08-15 18:58 METAR CYZX 151858Z 27013KT 6SM -TSRA BKN030CB BKN250 24/21 A2983 RMK CB6CI1
                 SLP102 =
2018-08-15 18:35 METAR CYZX 151835Z 30011KT 10SM BKN040 BKN250 25/22 A2982 RMK SC5CI1 SLP099 =
2018-08-15 18:23 METAR CYZX 151823Z 29015KT 3SM BR BKN040 25/20 A2983 RMK SC6 SLP102 =
2018-08-15 18:00 METAR CYZX 151800Z 29010G16KT 15SM BKN045 26/20 A2983 RMK SC6 SLP100 =
2018-08-15 17:00 METAR CYZX 151700Z 24010G16KT 15SM BKN045 28/18 A2983 RMK SC6 SLP100 =
2018-08-15 16:00 METAR CYZX 151600Z 25011KT 15SM SCT035 27/19 A2984 RMK SC4 SLP103 =
2018-08-15 15:00 METAR CYZX 151500Z 23011KT 15SM BKN030 27/20 A2985 RMK SC5 SLP109 =
2018-08-15 14:00 METAR CYZX 151400Z 21011G20KT 15SM BKN030 BKN250 26/20 A2986 RMK SC5CI1 SLP111 =

Support USWX by starting your Amazon purchase here.